createdAt,value
2022-07-29T00:00:37.087Z,19.00
2022-07-29T00:01:37.092Z,19.02
2022-07-29T00:02:37.118Z,18.98
2022-07-29T00:03:37.155Z,18.92
2022-07-29T00:04:37.166Z,18.95
2022-07-29T00:05:37.149Z,18.93
2022-07-29T00:06:37.106Z,18.96
2022-07-29T00:07:37.094Z,18.89
2022-07-29T00:08:37.088Z,18.92
2022-07-29T00:09:50.628Z,18.88
2022-07-29T00:10:37.107Z,18.92
2022-07-29T00:11:37.112Z,18.86
2022-07-29T00:12:37.160Z,18.86
2022-07-29T00:13:37.089Z,18.83
2022-07-29T00:14:37.089Z,18.90
2022-07-29T00:15:37.100Z,18.80
2022-07-29T00:16:37.242Z,18.80
2022-07-29T00:17:37.092Z,18.83
2022-07-29T00:18:37.093Z,18.84
2022-07-29T00:19:37.101Z,18.84
2022-07-29T00:20:37.095Z,18.80
2022-07-29T00:21:37.095Z,18.80
2022-07-29T00:22:37.108Z,18.74
2022-07-29T00:23:37.099Z,18.80
2022-07-29T00:24:37.098Z,18.75
2022-07-29T00:25:37.110Z,18.83
2022-07-29T00:26:37.114Z,18.75
2022-07-29T00:27:37.110Z,18.74
2022-07-29T00:28:37.115Z,18.78
2022-07-29T00:29:37.119Z,18.70
2022-07-29T00:30:37.099Z,18.70
2022-07-29T00:31:37.176Z,18.75
2022-07-29T00:32:37.101Z,18.68
2022-07-29T00:33:37.110Z,18.70
2022-07-29T00:34:37.112Z,18.68
2022-07-29T00:35:37.107Z,18.65
2022-07-29T00:36:37.099Z,18.63
2022-07-29T00:37:37.101Z,18.62
2022-07-29T00:38:37.103Z,18.56
2022-07-29T00:39:37.108Z,18.66
2022-07-29T00:40:37.130Z,18.63
2022-07-29T00:41:37.105Z,18.56
2022-07-29T00:42:37.111Z,18.60
2022-07-29T00:43:37.106Z,18.56
2022-07-29T00:44:37.114Z,18.56
2022-07-29T00:45:37.110Z,18.52
2022-07-29T00:46:37.150Z,18.58
2022-07-29T00:47:37.105Z,18.55
2022-07-29T00:48:37.193Z,18.55
2022-07-29T00:49:37.116Z,18.53
2022-07-29T00:50:37.108Z,18.55
2022-07-29T00:51:37.108Z,18.55
2022-07-29T00:52:37.122Z,18.52
2022-07-29T00:53:37.116Z,18.49
2022-07-29T00:54:39.225Z,18.52
2022-07-29T00:55:37.120Z,18.55
2022-07-29T00:56:37.129Z,18.49
2022-07-29T00:57:37.118Z,18.50
2022-07-29T00:58:37.119Z,18.47
2022-07-29T00:59:37.111Z,18.50
2022-07-29T01:00:37.247Z,18.47
2022-07-29T01:01:37.141Z,18.41
2022-07-29T01:02:37.217Z,18.45
2022-07-29T01:03:37.125Z,18.40
2022-07-29T01:04:37.111Z,18.49
2022-07-29T01:05:48.424Z,18.45
2022-07-29T01:06:37.119Z,18.44
2022-07-29T01:07:37.122Z,18.43
2022-07-29T01:08:37.121Z,18.44
2022-07-29T01:09:45.942Z,18.44
2022-07-29T01:10:37.130Z,18.45
2022-07-29T01:11:37.122Z,18.44
2022-07-29T01:12:37.135Z,18.49
2022-07-29T01:13:37.124Z,18.40
2022-07-29T01:14:37.123Z,18.44
2022-07-29T01:15:37.120Z,18.43
2022-07-29T01:16:37.216Z,18.43
2022-07-29T01:17:37.119Z,18.38
2022-07-29T01:18:37.145Z,18.45
2022-07-29T01:19:37.122Z,18.35
2022-07-29T01:20:37.122Z,18.47
2022-07-29T01:21:37.128Z,18.35
2022-07-29T01:22:37.120Z,18.34
2022-07-29T01:23:37.126Z,18.34
2022-07-29T01:24:37.125Z,18.38
2022-07-29T01:25:37.129Z,18.34
2022-07-29T01:26:37.122Z,18.35
2022-07-29T01:27:37.127Z,18.31
2022-07-29T01:28:37.125Z,18.29
2022-07-29T01:29:40.415Z,18.33
2022-07-29T01:30:37.123Z,18.23
2022-07-29T01:31:37.388Z,18.25
2022-07-29T01:32:37.127Z,18.28
2022-07-29T01:33:37.130Z,18.31
2022-07-29T01:34:37.118Z,18.31
2022-07-29T01:35:37.136Z,18.23
2022-07-29T01:36:37.122Z,18.18
2022-07-29T01:37:37.133Z,18.23
2022-07-29T01:38:37.122Z,18.22
2022-07-29T01:39:37.139Z,18.23
2022-07-29T01:40:37.130Z,18.22
2022-07-29T01:41:37.177Z,18.19
2022-07-29T01:42:37.123Z,18.10
2022-07-29T01:43:37.122Z,18.11
2022-07-29T01:44:37.125Z,18.07
2022-07-29T01:45:37.161Z,18.11
2022-07-29T01:46:37.173Z,18.05
2022-07-29T01:47:37.135Z,18.04
2022-07-29T01:48:37.143Z,18.04
2022-07-29T01:49:37.148Z,18.04
2022-07-29T01:50:37.125Z,18.01
2022-07-29T01:51:37.142Z,18.01
2022-07-29T01:52:37.133Z,18.01
2022-07-29T01:53:37.992Z,18.01
2022-07-29T01:54:37.133Z,18.03
2022-07-29T01:55:37.135Z,18.04
2022-07-29T01:56:37.157Z,17.98
2022-07-29T01:57:37.125Z,18.00
2022-07-29T01:58:37.126Z,17.95
2022-07-29T01:59:37.120Z,17.94
2022-07-29T02:00:37.128Z,17.98
2022-07-29T02:01:37.175Z,17.90
2022-07-29T02:02:37.140Z,17.87
2022-07-29T02:03:37.124Z,17.94
2022-07-29T02:04:37.159Z,17.90
2022-07-29T02:05:37.127Z,17.94
2022-07-29T02:06:37.127Z,17.94
2022-07-29T02:07:37.152Z,17.94
2022-07-29T02:08:37.134Z,17.92
2022-07-29T02:09:37.141Z,17.86
2022-07-29T02:10:37.138Z,17.92
2022-07-29T02:11:37.140Z,17.86
2022-07-29T02:12:37.144Z,17.87
2022-07-29T02:13:37.125Z,17.87
2022-07-29T02:14:37.125Z,17.86
2022-07-29T02:15:37.123Z,17.89
2022-07-29T02:16:37.173Z,17.87
2022-07-29T02:17:39.878Z,17.87
2022-07-29T02:18:37.124Z,17.92
2022-07-29T02:19:37.122Z,17.85
2022-07-29T02:20:37.126Z,17.92
2022-07-29T02:21:37.130Z,17.87
2022-07-29T02:22:37.130Z,17.90
2022-07-29T02:23:50.421Z,17.92
2022-07-29T02:24:37.144Z,17.86
2022-07-29T02:25:38.419Z,17.89
2022-07-29T02:26:37.148Z,17.87
2022-07-29T02:27:37.129Z,17.90
2022-07-29T02:28:37.153Z,17.83
2022-07-29T02:29:37.126Z,17.87
2022-07-29T02:30:37.125Z,17.85
2022-07-29T02:31:37.203Z,17.79
2022-07-29T02:32:37.123Z,17.87
2022-07-29T02:33:37.128Z,17.79
2022-07-29T02:34:37.128Z,17.87
2022-07-29T02:35:37.128Z,17.89
2022-07-29T02:36:37.122Z,17.86
2022-07-29T02:37:37.166Z,17.89
2022-07-29T02:38:37.132Z,17.87
2022-07-29T02:39:37.142Z,17.83
2022-07-29T02:40:37.137Z,17.80
2022-07-29T02:41:37.135Z,17.92
2022-07-29T02:42:37.119Z,17.83
2022-07-29T02:43:37.125Z,17.87
2022-07-29T02:44:37.124Z,17.92
2022-07-29T02:45:37.159Z,17.85
2022-07-29T02:46:37.190Z,17.89
2022-07-29T02:47:41.348Z,17.83
2022-07-29T02:48:37.165Z,17.83
2022-07-29T02:49:37.124Z,17.85
2022-07-29T02:50:37.121Z,17.78
2022-07-29T02:51:43.708Z,17.86
2022-07-29T02:52:37.131Z,17.90
2022-07-29T02:53:37.134Z,17.79
2022-07-29T02:54:37.129Z,17.80
2022-07-29T02:55:37.139Z,17.85
2022-07-29T02:56:37.149Z,17.89
2022-07-29T02:57:55.052Z,17.82
2022-07-29T02:58:37.120Z,17.70
2022-07-29T02:59:37.120Z,17.76
2022-07-29T03:00:37.129Z,17.78
2022-07-29T03:01:37.149Z,17.72
2022-07-29T03:02:37.136Z,17.78
2022-07-29T03:03:37.120Z,17.76
2022-07-29T03:04:37.234Z,17.72
2022-07-29T03:05:37.121Z,17.76
2022-07-29T03:06:38.604Z,17.71
2022-07-29T03:07:37.138Z,17.76
2022-07-29T03:08:37.144Z,17.70
2022-07-29T03:09:37.134Z,17.68
2022-07-29T03:10:37.132Z,17.72
2022-07-29T03:11:42.321Z,17.76
2022-07-29T03:12:37.121Z,17.72
2022-07-29T03:13:37.121Z,17.72
2022-07-29T03:14:37.120Z,17.70
2022-07-29T03:15:37.173Z,17.68
2022-07-29T03:16:41.031Z,17.78
2022-07-29T03:17:37.123Z,17.71
2022-07-29T03:18:37.150Z,17.74
2022-07-29T03:19:37.119Z,17.68
2022-07-29T03:20:37.142Z,17.71
2022-07-29T03:21:37.124Z,17.70
2022-07-29T03:22:37.137Z,17.68
2022-07-29T03:23:37.124Z,17.56
2022-07-29T03:24:37.144Z,17.57
2022-07-29T03:25:37.116Z,17.71
2022-07-29T03:26:37.115Z,17.60
2022-07-29T03:27:37.120Z,17.59
2022-07-29T03:28:37.121Z,17.57
2022-07-29T03:29:37.120Z,17.56
2022-07-29T03:30:37.118Z,17.70
2022-07-29T03:31:37.178Z,17.54
2022-07-29T03:32:37.119Z,17.56
2022-07-29T03:33:37.168Z,17.56
2022-07-29T03:34:37.143Z,17.60
2022-07-29T03:35:37.126Z,17.68
2022-07-29T03:36:37.161Z,17.64
2022-07-29T03:37:37.142Z,17.64
2022-07-29T03:38:37.116Z,17.64
2022-07-29T03:39:37.124Z,17.64
2022-07-29T03:40:37.113Z,17.60
2022-07-29T03:41:37.117Z,17.59
2022-07-29T03:42:37.125Z,17.59
2022-07-29T03:43:37.115Z,17.59
2022-07-29T03:44:37.136Z,17.59
2022-07-29T03:45:37.116Z,17.57
2022-07-29T03:46:37.156Z,17.65
2022-07-29T03:47:50.063Z,17.68
2022-07-29T03:48:37.171Z,17.63
2022-07-29T03:49:37.134Z,17.63
2022-07-29T03:50:37.129Z,17.63
2022-07-29T03:51:37.130Z,17.57
2022-07-29T03:52:37.123Z,17.63
2022-07-29T03:53:37.118Z,17.57
2022-07-29T03:54:37.117Z,17.57
2022-07-29T03:55:37.109Z,17.51
2022-07-29T03:56:37.109Z,17.64
2022-07-29T03:57:37.119Z,17.60
2022-07-29T03:58:37.116Z,17.64
2022-07-29T03:59:37.111Z,17.64
2022-07-29T04:00:37.116Z,17.60
2022-07-29T04:01:37.127Z,17.52
2022-07-29T04:02:37.141Z,17.63
2022-07-29T04:03:37.208Z,17.70
2022-07-29T04:04:37.167Z,17.71
2022-07-29T04:05:37.130Z,17.74
2022-07-29T04:06:37.115Z,17.71
2022-07-29T04:07:37.108Z,17.71
2022-07-29T04:08:37.174Z,17.76
2022-07-29T04:09:37.111Z,17.65
2022-07-29T04:10:37.124Z,17.68
2022-07-29T04:12:03.815Z,17.76
2022-07-29T04:12:37.110Z,17.72
2022-07-29T04:13:37.105Z,17.70
2022-07-29T04:14:37.126Z,17.78
2022-07-29T04:15:37.195Z,17.78
2022-07-29T04:16:37.105Z,17.76
2022-07-29T04:17:37.127Z,17.74
2022-07-29T04:18:37.117Z,17.80
2022-07-29T04:19:37.127Z,17.72
2022-07-29T04:20:37.118Z,17.80
2022-07-29T04:21:37.114Z,17.68
2022-07-29T04:22:37.133Z,17.72
2022-07-29T04:23:53.134Z,17.68
2022-07-29T04:24:37.105Z,17.70
2022-07-29T04:25:37.108Z,17.80
2022-07-29T04:26:37.123Z,17.71
2022-07-29T04:27:37.109Z,17.78
2022-07-29T04:28:37.108Z,17.79
2022-07-29T04:29:37.115Z,17.71
2022-07-29T04:30:37.113Z,17.70
2022-07-29T04:31:37.178Z,17.72
2022-07-29T04:32:37.110Z,17.78
2022-07-29T04:33:37.194Z,17.74
2022-07-29T04:34:37.128Z,17.78
2022-07-29T04:35:38.587Z,17.78
2022-07-29T04:36:37.108Z,17.72
2022-07-29T04:37:37.115Z,17.74
2022-07-29T04:38:37.109Z,17.72
2022-07-29T04:39:37.107Z,17.74
2022-07-29T04:40:38.497Z,17.76
2022-07-29T04:41:37.153Z,17.87
2022-07-29T04:42:43.998Z,17.82
2022-07-29T04:43:37.106Z,17.82
2022-07-29T04:44:39.467Z,17.89
2022-07-29T04:45:37.116Z,17.86
2022-07-29T04:46:37.214Z,17.89
2022-07-29T04:47:37.115Z,17.87
2022-07-29T04:48:37.181Z,17.85
2022-07-29T04:49:37.112Z,17.79
2022-07-29T04:50:37.186Z,17.87
2022-07-29T04:51:37.107Z,17.80
2022-07-29T04:52:37.118Z,17.86
2022-07-29T04:53:37.131Z,17.87
2022-07-29T04:54:37.111Z,17.87
2022-07-29T04:55:37.138Z,17.89
2022-07-29T04:56:37.112Z,17.92
2022-07-29T04:57:37.111Z,17.98
2022-07-29T04:58:37.143Z,17.87
2022-07-29T04:59:37.113Z,17.89
2022-07-29T05:00:37.121Z,17.85
2022-07-29T05:01:37.161Z,17.92
2022-07-29T05:02:37.203Z,17.87
2022-07-29T05:03:37.132Z,17.85
2022-07-29T05:04:37.128Z,17.87
2022-07-29T05:05:37.129Z,17.90
2022-07-29T05:06:37.111Z,17.90
2022-07-29T05:07:37.111Z,17.85
2022-07-29T05:08:37.114Z,17.89
2022-07-29T05:09:37.157Z,17.80
2022-07-29T05:10:37.129Z,17.86
2022-07-29T05:11:37.149Z,17.87
2022-07-29T05:12:37.113Z,17.87
2022-07-29T05:13:45.837Z,17.95
2022-07-29T05:14:44.345Z,17.94
2022-07-29T05:16:41.136Z,17.98
2022-07-29T05:17:41.106Z,18.01
2022-07-29T05:19:45.094Z,18.07
2022-07-29T05:20:45.089Z,18.05
2022-07-29T05:22:49.102Z,18.11
2022-07-29T05:23:49.110Z,18.10
2022-07-29T05:25:44.641Z,18.08
2022-07-29T05:26:41.986Z,18.05
2022-07-29T05:28:46.032Z,18.05
2022-07-29T05:29:46.071Z,18.08
2022-07-29T05:31:50.049Z,18.08
2022-07-29T05:32:50.046Z,18.05
2022-07-29T05:34:54.094Z,18.07
2022-07-29T05:35:58.514Z,18.05
2022-07-29T05:37:58.030Z,18.03
2022-07-29T05:38:58.010Z,18.04
2022-07-29T05:41:02.018Z,17.98
2022-07-29T05:42:01.998Z,18.04
2022-07-29T05:44:05.991Z,18.04
2022-07-29T05:45:06.011Z,18.03
2022-07-29T05:47:10.000Z,18.01
2022-07-29T05:48:09.988Z,18.13
2022-07-29T05:50:13.985Z,18.15
2022-07-29T05:51:13.976Z,18.22
2022-07-29T05:53:19.890Z,18.23
2022-07-29T05:54:18.454Z,18.13
2022-07-29T05:56:21.975Z,18.31
2022-07-29T05:57:21.953Z,18.43
2022-07-29T05:59:30.132Z,18.73
2022-07-29T06:00:25.940Z,18.83
2022-07-29T06:01:26.028Z,18.99
2022-07-29T06:02:25.949Z,19.14
2022-07-29T06:03:25.951Z,19.16
2022-07-29T06:04:25.990Z,19.33
2022-07-29T06:05:25.962Z,19.33
2022-07-29T06:06:26.014Z,19.33
2022-07-29T06:07:25.969Z,19.27
2022-07-29T06:08:25.975Z,19.33
2022-07-29T06:09:25.986Z,19.16
2022-07-29T06:10:26.241Z,19.24
2022-07-29T06:11:25.975Z,19.26
2022-07-29T06:12:25.989Z,19.31
2022-07-29T06:13:25.992Z,19.37
2022-07-29T06:14:25.997Z,19.34
2022-07-29T06:15:25.992Z,19.45
2022-07-29T06:16:29.838Z,19.41
2022-07-29T06:17:26.019Z,19.47
2022-07-29T06:18:26.005Z,19.44
2022-07-29T06:19:26.051Z,19.48
2022-07-29T06:20:26.933Z,19.56
2022-07-29T06:21:26.013Z,19.54
2022-07-29T06:22:26.018Z,19.49
2022-07-29T06:23:26.023Z,19.54
2022-07-29T06:24:26.028Z,19.49
2022-07-29T06:25:26.037Z,19.58
2022-07-29T06:26:30.748Z,19.58
2022-07-29T06:27:26.047Z,19.69
2022-07-29T06:28:26.044Z,19.59
2022-07-29T06:29:26.049Z,19.58
2022-07-29T06:30:26.186Z,19.66
2022-07-29T06:31:26.119Z,19.63
2022-07-29T06:32:27.399Z,19.59
2022-07-29T06:33:26.064Z,19.56
2022-07-29T06:34:26.091Z,19.56
2022-07-29T06:35:38.989Z,19.59
2022-07-29T06:36:26.090Z,19.71
2022-07-29T06:37:26.080Z,19.74
2022-07-29T06:38:33.703Z,19.79
2022-07-29T06:39:26.094Z,19.71
2022-07-29T06:40:26.212Z,19.86
2022-07-29T06:41:26.121Z,19.81
2022-07-29T06:42:26.114Z,19.86
2022-07-29T06:43:26.420Z,19.89
2022-07-29T06:44:26.138Z,19.88
2022-07-29T06:45:26.109Z,19.71
2022-07-29T06:46:26.196Z,19.74
2022-07-29T06:47:26.124Z,19.76
2022-07-29T06:48:26.142Z,19.73
2022-07-29T06:49:26.245Z,19.77
2022-07-29T06:50:26.139Z,19.69
2022-07-29T06:51:26.137Z,19.70
2022-07-29T06:52:26.133Z,19.63
2022-07-29T06:53:26.130Z,19.74
2022-07-29T06:54:26.135Z,19.69
2022-07-29T06:55:26.148Z,19.74
2022-07-29T06:56:26.148Z,19.77
2022-07-29T06:57:26.154Z,19.86
2022-07-29T06:58:26.150Z,19.85
2022-07-29T06:59:33.432Z,19.77
2022-07-29T07:00:26.171Z,19.82
2022-07-29T07:01:26.218Z,19.79
2022-07-29T07:02:26.188Z,19.76
2022-07-29T07:03:26.188Z,19.77
2022-07-29T07:04:26.179Z,19.89
2022-07-29T07:05:26.169Z,19.91
2022-07-29T07:06:26.189Z,19.94
2022-07-29T07:07:26.168Z,20.14
2022-07-29T07:08:26.174Z,20.40
2022-07-29T07:09:26.182Z,20.66
2022-07-29T07:10:26.177Z,20.82
2022-07-29T07:11:26.197Z,21.07
2022-07-29T07:12:26.235Z,21.17
2022-07-29T07:13:26.215Z,21.29
2022-07-29T07:14:26.207Z,21.37
2022-07-29T07:15:39.035Z,21.43
2022-07-29T07:16:26.261Z,21.37
2022-07-29T07:17:26.257Z,21.40
2022-07-29T07:18:26.237Z,21.37
2022-07-29T07:19:26.255Z,21.40
2022-07-29T07:20:26.243Z,21.46
2022-07-29T07:21:26.247Z,21.42
2022-07-29T07:22:26.261Z,21.43
2022-07-29T07:23:26.268Z,21.45
2022-07-29T07:24:26.295Z,21.40
2022-07-29T07:25:26.295Z,21.46
2022-07-29T07:26:26.328Z,21.52
2022-07-29T07:27:26.337Z,21.62
2022-07-29T07:28:26.303Z,21.77
2022-07-29T07:29:26.310Z,21.92
2022-07-29T07:30:26.322Z,21.98
2022-07-29T07:31:26.393Z,22.18
2022-07-29T07:32:26.410Z,22.35
2022-07-29T07:33:26.343Z,22.65
2022-07-29T07:34:29.310Z,22.75
2022-07-29T07:35:26.376Z,23.09
2022-07-29T07:36:26.400Z,23.12
2022-07-29T07:37:26.398Z,23.23
2022-07-29T07:38:26.405Z,23.41
2022-07-29T07:39:26.411Z,23.51
2022-07-29T07:40:26.413Z,23.66
2022-07-29T07:41:26.478Z,23.66
2022-07-29T07:42:26.507Z,23.76
2022-07-29T07:43:26.469Z,23.80
2022-07-29T07:44:26.466Z,23.80
2022-07-29T07:45:26.581Z,23.81
2022-07-29T07:46:26.603Z,23.93
2022-07-29T07:47:28.029Z,24.05
2022-07-29T07:48:26.526Z,24.06
2022-07-29T07:49:26.626Z,24.24
2022-07-29T07:50:26.549Z,24.21
2022-07-29T07:51:26.577Z,24.26
2022-07-29T07:52:26.576Z,24.53
2022-07-29T07:53:26.603Z,24.58
2022-07-29T07:54:26.693Z,24.65
2022-07-29T07:55:26.653Z,24.69
2022-07-29T07:56:28.007Z,24.84
2022-07-29T07:57:26.654Z,24.95
2022-07-29T07:58:26.667Z,25.01
2022-07-29T07:59:26.675Z,25.08
2022-07-29T08:00:26.693Z,25.11
2022-07-29T08:01:26.785Z,25.11
2022-07-29T08:02:26.737Z,25.13
2022-07-29T08:03:26.743Z,25.23
2022-07-29T08:04:28.477Z,25.40
2022-07-29T08:05:26.772Z,25.46
2022-07-29T08:06:26.786Z,25.47
2022-07-29T08:07:26.804Z,25.50
2022-07-29T08:08:26.825Z,25.48
2022-07-29T08:09:29.758Z,25.51
2022-07-29T08:10:26.858Z,25.47
2022-07-29T08:11:26.864Z,25.54
2022-07-29T08:12:26.886Z,25.58
2022-07-29T08:13:26.890Z,25.47
2022-07-29T08:14:26.910Z,25.54
2022-07-29T08:15:26.921Z,25.58
2022-07-29T08:16:26.985Z,25.62
2022-07-29T08:17:26.951Z,25.53
2022-07-29T08:18:26.958Z,25.41
2022-07-29T08:19:26.985Z,25.41
2022-07-29T08:20:27.000Z,25.43
2022-07-29T08:21:27.036Z,25.32
2022-07-29T08:22:27.018Z,25.25
2022-07-29T08:23:29.298Z,25.23
2022-07-29T08:24:27.043Z,25.32
2022-07-29T08:25:27.056Z,25.36
2022-07-29T08:26:27.126Z,25.43
2022-07-29T08:27:43.376Z,25.50
2022-07-29T08:28:27.087Z,25.47
2022-07-29T08:29:27.095Z,25.40
2022-07-29T08:30:27.103Z,25.53
2022-07-29T08:31:27.132Z,25.53
2022-07-29T08:32:51.888Z,25.54
2022-07-29T08:33:27.141Z,25.50
2022-07-29T08:34:27.792Z,25.66
2022-07-29T08:35:28.470Z,25.68
2022-07-29T08:36:27.184Z,25.62
2022-07-29T08:37:27.177Z,25.59
2022-07-29T08:38:27.203Z,25.54
2022-07-29T08:39:27.221Z,25.58
2022-07-29T08:40:31.960Z,25.65
2022-07-29T08:41:27.224Z,25.65
2022-07-29T08:42:27.223Z,25.70
2022-07-29T08:43:27.262Z,25.68
2022-07-29T08:44:30.492Z,25.77
2022-07-29T08:45:27.339Z,25.68
2022-07-29T08:46:27.274Z,25.70
2022-07-29T08:47:27.285Z,25.70
2022-07-29T08:48:27.276Z,25.53
2022-07-29T08:49:27.375Z,25.58
2022-07-29T08:50:27.292Z,25.51
2022-07-29T08:51:27.318Z,25.53
2022-07-29T08:52:27.322Z,25.47
2022-07-29T08:53:27.354Z,25.36
2022-07-29T08:54:27.331Z,25.25
2022-07-29T08:55:27.333Z,25.25
2022-07-29T08:56:27.339Z,25.06
2022-07-29T08:57:27.348Z,24.93
2022-07-29T08:58:27.362Z,24.86
2022-07-29T08:59:27.358Z,24.88
2022-07-29T09:00:27.365Z,24.73
2022-07-29T09:01:35.972Z,24.58
2022-07-29T09:02:27.413Z,24.66
2022-07-29T09:03:27.410Z,24.63
2022-07-29T09:04:27.396Z,24.55
2022-07-29T09:05:27.435Z,24.50
2022-07-29T09:06:27.413Z,24.50
2022-07-29T09:07:27.419Z,24.51
2022-07-29T09:08:27.428Z,24.54
2022-07-29T09:09:27.429Z,24.48
2022-07-29T09:10:27.432Z,24.58
2022-07-29T09:11:27.441Z,24.68
2022-07-29T09:12:29.518Z,24.78
2022-07-29T09:13:27.461Z,24.85
2022-07-29T09:14:27.476Z,24.86
2022-07-29T09:15:27.483Z,25.06
2022-07-29T09:16:51.926Z,25.08
2022-07-29T09:17:27.563Z,25.18
2022-07-29T09:18:31.219Z,25.22
2022-07-29T09:19:27.498Z,25.22
2022-07-29T09:20:27.503Z,25.25
2022-07-29T09:21:27.515Z,25.33
2022-07-29T09:22:27.517Z,25.31
2022-07-29T09:23:27.568Z,25.41
2022-07-29T09:24:27.527Z,25.40
2022-07-29T09:25:27.539Z,25.36
2022-07-29T09:26:27.545Z,25.38
2022-07-29T09:27:27.572Z,25.43
2022-07-29T09:28:27.550Z,25.38
2022-07-29T09:29:27.569Z,25.32
2022-07-29T09:30:31.876Z,25.29
2022-07-29T09:31:27.608Z,25.21
2022-07-29T09:32:27.593Z,25.17
2022-07-29T09:33:27.590Z,25.08
2022-07-29T09:34:27.601Z,24.96
2022-07-29T09:35:27.639Z,24.99
2022-07-29T09:36:27.621Z,24.81
2022-07-29T09:37:27.615Z,24.92
2022-07-29T09:38:27.610Z,24.78
2022-07-29T09:39:27.639Z,24.81
2022-07-29T09:40:27.643Z,24.70
2022-07-29T09:41:27.634Z,24.78
2022-07-29T09:42:27.634Z,24.65
2022-07-29T09:43:27.655Z,24.66
2022-07-29T09:44:27.668Z,24.70
2022-07-29T09:45:27.660Z,24.60
2022-07-29T09:46:27.730Z,24.65
2022-07-29T09:47:27.708Z,24.68
2022-07-29T09:48:27.690Z,24.65
2022-07-29T09:49:27.783Z,24.66
2022-07-29T09:50:27.691Z,24.63
2022-07-29T09:51:38.045Z,24.66
2022-07-29T09:52:27.707Z,24.70
2022-07-29T09:53:27.707Z,24.68
2022-07-29T09:54:27.718Z,24.68
2022-07-29T09:55:27.715Z,24.73
2022-07-29T09:56:27.732Z,24.84
2022-07-29T09:57:30.878Z,24.78
2022-07-29T09:58:27.791Z,24.85
2022-07-29T09:59:27.754Z,24.85
2022-07-29T10:00:27.773Z,24.81
2022-07-29T10:01:27.793Z,24.80
2022-07-29T10:02:27.769Z,24.88
2022-07-29T10:03:27.810Z,24.88
2022-07-29T10:04:27.775Z,24.95
2022-07-29T10:05:36.595Z,24.93
2022-07-29T10:06:27.818Z,25.04
2022-07-29T10:07:27.794Z,24.96
2022-07-29T10:08:27.814Z,25.03
2022-07-29T10:09:27.814Z,25.03
2022-07-29T10:10:27.811Z,25.08
2022-07-29T10:11:27.829Z,25.08
2022-07-29T10:12:27.828Z,25.18
2022-07-29T10:13:27.864Z,25.23
2022-07-29T10:14:27.881Z,25.17
2022-07-29T10:15:27.853Z,25.23
2022-07-29T10:16:27.905Z,25.25
2022-07-29T10:17:27.865Z,25.23
2022-07-29T10:18:27.874Z,25.28
2022-07-29T10:19:27.879Z,25.18
2022-07-29T10:20:27.873Z,25.21
2022-07-29T10:21:36.215Z,25.11
2022-07-29T10:22:52.020Z,25.13
2022-07-29T10:23:27.988Z,25.03
2022-07-29T10:24:27.904Z,25.08
2022-07-29T10:25:27.957Z,25.07
2022-07-29T10:26:27.911Z,25.06
2022-07-29T10:27:27.908Z,25.07
2022-07-29T10:28:27.928Z,25.04
2022-07-29T10:29:27.924Z,25.04
2022-07-29T10:30:27.935Z,25.01
2022-07-29T10:31:27.983Z,25.06
2022-07-29T10:32:27.960Z,25.07
2022-07-29T10:33:27.950Z,24.98
2022-07-29T10:34:27.966Z,24.98
2022-07-29T10:35:27.962Z,25.06
2022-07-29T10:36:27.960Z,25.06
2022-07-29T10:37:27.977Z,25.04
2022-07-29T10:38:27.976Z,25.01
2022-07-29T10:39:34.384Z,25.06
2022-07-29T10:40:27.979Z,25.03
2022-07-29T10:41:29.091Z,25.08
2022-07-29T10:42:29.585Z,25.14
2022-07-29T10:43:28.002Z,25.21
2022-07-29T10:44:28.009Z,25.16
2022-07-29T10:45:28.012Z,25.26
2022-07-29T10:46:28.108Z,25.22
2022-07-29T10:47:28.027Z,25.28
2022-07-29T10:48:28.030Z,25.33
2022-07-29T10:49:30.489Z,25.41
2022-07-29T10:50:28.044Z,25.38
2022-07-29T10:51:28.047Z,25.41
2022-07-29T10:52:30.321Z,25.41
2022-07-29T10:53:28.081Z,25.40
2022-07-29T10:54:28.063Z,25.40
2022-07-29T10:55:28.094Z,25.38
2022-07-29T10:56:28.078Z,25.33
2022-07-29T10:57:53.926Z,25.32
2022-07-29T10:58:28.085Z,25.18
2022-07-29T10:59:36.065Z,25.22
2022-07-29T11:00:28.098Z,25.21
2022-07-29T11:01:37.761Z,25.18
2022-07-29T11:02:41.523Z,25.16
2022-07-29T11:03:28.153Z,25.08
2022-07-29T11:04:28.129Z,25.06
2022-07-29T11:05:32.204Z,25.03
2022-07-29T11:06:28.340Z,25.04
2022-07-29T11:07:28.138Z,25.11
2022-07-29T11:08:28.405Z,25.08
2022-07-29T11:09:37.742Z,25.06
2022-07-29T11:10:31.348Z,25.08
2022-07-29T11:11:29.725Z,25.10
2022-07-29T11:12:28.172Z,25.01
2022-07-29T11:13:28.178Z,25.07
2022-07-29T11:15:41.446Z,25.11
2022-07-29T11:16:41.450Z,25.07
2022-07-29T11:18:34.459Z,25.06
2022-07-29T11:19:34.451Z,25.17
2022-07-29T11:20:34.457Z,25.14
2022-07-29T11:21:48.909Z,25.22
2022-07-29T11:22:34.470Z,25.26
2022-07-29T11:23:34.790Z,25.35
2022-07-29T11:24:35.115Z,25.38
2022-07-29T11:26:34.500Z,25.33
2022-07-29T11:27:34.506Z,25.38
2022-07-29T11:28:34.499Z,25.48
2022-07-29T11:29:40.048Z,25.43
2022-07-29T11:30:34.511Z,25.48
2022-07-29T11:31:34.520Z,25.48
2022-07-29T11:32:34.535Z,25.47
2022-07-29T11:33:54.058Z,25.54
2022-07-29T11:34:34.867Z,25.51
2022-07-29T11:35:38.164Z,25.48
2022-07-29T11:36:34.553Z,25.50
2022-07-29T11:37:34.579Z,25.53
2022-07-29T11:38:34.554Z,25.50
2022-07-29T11:39:37.003Z,25.50
2022-07-29T11:40:34.582Z,25.46
2022-07-29T11:41:34.577Z,25.51
2022-07-29T11:42:35.321Z,25.50
2022-07-29T11:43:34.589Z,25.58
2022-07-29T11:44:34.610Z,25.48
2022-07-29T11:45:41.305Z,25.51
2022-07-29T11:46:34.628Z,25.53
2022-07-29T11:47:38.244Z,25.55
2022-07-29T11:48:34.826Z,25.53
2022-07-29T11:49:34.646Z,25.53
2022-07-29T11:50:34.610Z,25.50
2022-07-29T11:51:34.635Z,25.55
2022-07-29T11:52:34.659Z,25.54
2022-07-29T11:53:34.628Z,25.60
2022-07-29T11:54:38.824Z,25.54
2022-07-29T11:55:34.649Z,25.62
2022-07-29T11:56:34.655Z,25.63
2022-07-29T11:57:36.525Z,25.59
2022-07-29T11:58:34.692Z,25.68
2022-07-29T11:59:35.319Z,25.66
2022-07-29T12:00:34.684Z,25.65
2022-07-29T12:01:34.699Z,25.50
2022-07-29T12:02:37.412Z,25.53
2022-07-29T12:04:34.696Z,25.65
2022-07-29T12:05:36.198Z,25.69
2022-07-29T12:06:34.709Z,25.65
2022-07-29T12:07:01.291Z,25.31
2022-07-29T12:07:02.501Z,25.51
2022-07-29T12:07:35.452Z,25.70
2022-07-29T12:08:34.721Z,25.68
2022-07-29T12:09:40.329Z,25.69
2022-07-29T12:10:34.746Z,25.66
2022-07-29T12:11:34.757Z,25.73
2022-07-29T12:12:34.759Z,25.69
2022-07-29T12:13:37.515Z,25.73
2022-07-29T12:14:34.741Z,25.70
2022-07-29T12:15:46.062Z,25.69
2022-07-29T12:16:34.784Z,25.70
2022-07-29T12:17:34.765Z,25.73
2022-07-29T12:18:34.782Z,25.65
2022-07-29T12:19:34.792Z,25.70
2022-07-29T12:20:34.799Z,25.70
2022-07-29T12:21:34.791Z,25.73
2022-07-29T12:22:34.918Z,25.69
2022-07-29T12:23:35.568Z,25.73
2022-07-29T12:24:34.813Z,25.77
2022-07-29T12:25:34.925Z,25.80
2022-07-29T12:26:35.733Z,25.84
2022-07-29T12:27:34.859Z,25.81
2022-07-29T12:28:34.841Z,25.78
2022-07-29T12:29:35.950Z,25.87
2022-07-29T12:30:34.841Z,25.88
2022-07-29T12:31:43.988Z,25.87
2022-07-29T12:32:34.942Z,25.88
2022-07-29T12:33:34.861Z,25.90
2022-07-29T12:34:34.860Z,25.91
2022-07-29T12:35:34.877Z,25.88
2022-07-29T12:36:34.867Z,25.88
2022-07-29T12:37:40.705Z,25.91
2022-07-29T12:38:34.894Z,25.95
2022-07-29T12:39:34.895Z,25.90
2022-07-29T12:40:34.917Z,26.00
2022-07-29T12:41:34.935Z,25.99
2022-07-29T12:42:34.923Z,25.95
2022-07-29T12:43:34.923Z,26.07
2022-07-29T12:44:34.937Z,26.07
2022-07-29T12:45:34.925Z,26.02
2022-07-29T12:46:34.984Z,26.09
2022-07-29T12:47:35.016Z,26.07
2022-07-29T12:48:34.961Z,26.07
2022-07-29T12:49:38.175Z,26.25
2022-07-29T12:50:34.965Z,26.25
2022-07-29T12:51:34.991Z,26.22
2022-07-29T12:52:34.988Z,26.21
2022-07-29T12:53:34.975Z,26.18
2022-07-29T12:54:34.968Z,26.16
2022-07-29T12:55:35.029Z,26.25
2022-07-29T12:56:43.724Z,26.25
2022-07-29T12:57:35.010Z,26.19
2022-07-29T12:58:35.042Z,26.19
2022-07-29T12:59:35.013Z,26.19
2022-07-29T13:00:35.061Z,26.19
2022-07-29T13:01:35.026Z,26.16
2022-07-29T13:02:35.076Z,26.07
2022-07-29T13:03:35.774Z,26.13
2022-07-29T13:04:35.026Z,26.13
2022-07-29T13:05:35.034Z,26.09
2022-07-29T13:06:35.065Z,26.06
2022-07-29T13:07:54.559Z,26.00
2022-07-29T13:08:35.069Z,26.09
2022-07-29T13:09:35.097Z,26.10
2022-07-29T13:10:35.089Z,26.09